Airfield :
LOGIN :

Register | Disclaimer

   EN    FR    IT 

 










Legend :    VFR   Marginal VFR   IFR   Intensive IFR   Very Intensive IFR
Visi :
Ceiling :
>= 8 km
>= 3000ft
5 to 8 km
1000 to 3000 ft
1500m to 5 km
500 to 1000 ft
800 to 1500m
200 to 500 ft
< 800m
< 200 ft
Symbols :   Thunderstorms  Fog  Heavy snow  Heavy precipitations  Wind > 20 kt
SIGMETs :     Misc.  Thunderstorms  Icing  Turbulence  Mountain Waves  Volcanic Ashes







- Airport Elevation : 302 ft
- IATA code : CGN


EDDK - Cologne Bonn

CURRENT METAR :
  • 160850Z 29009KT 6000 BKN007 03/02 Q1009 BECMG SCT010

EXPIRED METARs :
  • 160820Z 28006KT 6000 -RA OVC007 03/02 Q1009 BECMG SCT010
  • 160750Z 29006KT 8000 OVC008 03/02 Q1008 BECMG SCT010
  • 160720Z 26005KT 240V300 8000 SCT008 BKN010 03/02 Q1008 BECMG BKN008
  • 160650Z 31005KT 9999 -RA FEW008 BKN011 BKN017 02/02 Q1007 BECMG BKN008
  • 160620Z 33003KT 240V040 9999 BKN011 BKN038 02/02 Q1007 BECMG BKN008

TAF TAF EDDK
Valid from the 16 at 06:00 until the 17 at 12:00 UTC


160500Z 1606/1712 VRB03KT 9999 BKN030
TEMPO 1606/1612 3500 -RA BR BKN007
BECMG 1606/1609 28007KT
TEMPO 1615/1708 4000 -SHRA BKN012TCU
PROB40
TEMPO 1704/1712 BKN007
No reported NOTAMs for that airfield.



MET'MAP, your aeronautical weather chart ! - Copyright ORBIFLY December 2007 - Disclaimer

ORBIFLY MET'MAP TEAM :

Programming & Development : Alexandra Zaïnal
Concept & Development : Baudouin d'Aumeries
Co-Development & Prog : Marc-Olivier Méhu
Technical & hardware support : Manuel Goepfert

Contact : metmap@orbifly.com




SOURCES & CREDITS :

   NOAA